createdAt,value
2016-11-24T00:00:31.991Z,0
2016-11-24T00:01:31.921Z,0
2016-11-24T00:02:32.177Z,0
2016-11-24T00:03:31.837Z,0
2016-11-24T00:04:32.107Z,0
2016-11-24T00:05:32.058Z,0
2016-11-24T00:06:31.717Z,0
2016-11-24T00:07:31.979Z,0
2016-11-24T00:08:31.638Z,0
2016-11-24T00:09:31.892Z,0
2016-11-24T00:10:31.855Z,0
2016-11-24T00:11:31.825Z,0
2016-11-24T00:12:31.170Z,0
2016-11-24T00:13:31.436Z,0
2016-11-24T00:14:31.393Z,0
2016-11-24T00:15:31.657Z,0
2016-11-24T00:16:31.010Z,0
2016-11-24T00:17:30.965Z,0
2016-11-24T00:18:31.526Z,0
2016-11-24T00:19:31.190Z,0
2016-11-24T00:20:31.453Z,0
2016-11-24T00:21:31.105Z,0
2016-11-24T00:22:31.075Z,0
2016-11-24T00:23:30.724Z,0
2016-11-24T00:24:30.982Z,0
2016-11-24T00:25:30.941Z,0
2016-11-24T00:26:31.238Z,0
2016-11-24T00:27:30.566Z,0
2016-11-24T00:28:31.121Z,0
2016-11-24T00:29:30.784Z,0
2016-11-24T00:30:30.441Z,0
2016-11-24T00:31:30.705Z,0
2016-11-24T00:32:30.690Z,0
2016-11-24T00:33:30.920Z,0
2016-11-24T00:34:30.882Z,0
2016-11-24T00:35:30.843Z,0
2016-11-24T00:36:30.501Z,0
2016-11-24T00:37:30.763Z,0
2016-11-24T00:38:30.420Z,0
2016-11-24T00:39:30.683Z,0
2016-11-24T00:40:30.342Z,0
2016-11-24T00:41:30.603Z,0
2016-11-24T00:42:30.559Z,0
2016-11-24T00:43:30.511Z,0
2016-11-24T00:44:30.173Z,0
2016-11-24T00:45:30.435Z,0
2016-11-24T00:46:30.094Z,0
2016-11-24T00:47:29.747Z,0
2016-11-24T00:48:30.021Z,0
2016-11-24T00:49:29.976Z,0
2016-11-24T00:50:29.629Z,0
2016-11-24T00:51:30.220Z,0
2016-11-24T00:52:30.151Z,0
2016-11-24T00:53:29.504Z,0
2016-11-24T00:54:30.071Z,0
2016-11-24T00:55:30.029Z,0
2016-11-24T00:56:29.990Z,0
2016-11-24T00:57:29.951Z,0
2016-11-24T00:58:29.910Z,0
2016-11-24T00:59:29.581Z,0
2016-11-24T01:00:29.825Z,0
2016-11-24T01:01:29.785Z,0
2016-11-24T01:02:29.745Z,0
2016-11-24T01:03:29.405Z,0
2016-11-24T01:04:29.363Z,0
2016-11-24T01:05:29.027Z,0
2016-11-24T01:06:29.277Z,0
2016-11-24T01:07:29.244Z,0
2016-11-24T01:08:28.899Z,0
2016-11-24T01:09:29.457Z,0
2016-11-24T01:10:29.432Z,0
2016-11-24T01:11:28.793Z,0
2016-11-24T01:12:29.340Z,0
2016-11-24T01:13:28.703Z,0
2016-11-24T01:14:28.956Z,0
2016-11-24T01:15:28.916Z,0
2016-11-24T01:16:29.175Z,0
2016-11-24T01:17:29.132Z,0
2016-11-24T01:18:28.795Z,0
2016-11-24T01:19:29.058Z,0
2016-11-24T01:20:28.713Z,0
2016-11-24T01:21:28.671Z,0
2016-11-24T01:22:28.936Z,0
2016-11-24T01:23:28.889Z,0
2016-11-24T01:24:28.856Z,0
2016-11-24T01:25:28.825Z,0
2016-11-24T01:26:28.166Z,0
2016-11-24T01:27:28.427Z,0
2016-11-24T01:28:28.388Z,0
2016-11-24T01:29:28.340Z,0
2016-11-24T01:30:28.001Z,0
2016-11-24T01:31:28.262Z,0
2016-11-24T01:32:27.921Z,0
2016-11-24T01:33:28.183Z,0
2016-11-24T01:34:28.446Z,0
2016-11-24T01:35:28.110Z,0
2016-11-24T01:36:28.366Z,0
2016-11-24T01:37:28.019Z,0
2016-11-24T01:38:27.981Z,0
2016-11-24T01:39:27.941Z,0
2016-11-24T01:40:27.597Z,0
2016-11-24T01:41:28.157Z,0
2016-11-24T01:42:28.124Z,0
2016-11-24T01:43:27.776Z,0
2016-11-24T01:44:28.045Z,0
2016-11-24T01:45:27.995Z,0
2016-11-24T01:46:27.958Z,0
2016-11-24T01:47:27.307Z,0
2016-11-24T01:48:26.968Z,0
2016-11-24T01:49:27.542Z,0
2016-11-24T01:50:27.794Z,0
2016-11-24T01:51:27.151Z,0
2016-11-24T01:52:27.411Z,0
2016-11-24T01:53:27.375Z,0
2016-11-24T01:54:27.333Z,0
2016-11-24T01:55:27.287Z,0
2016-11-24T01:56:26.948Z,0
2016-11-24T01:57:27.208Z,0
2016-11-24T01:58:27.171Z,0
2016-11-24T01:59:26.521Z,0
2016-11-24T02:00:27.082Z,0
2016-11-24T02:01:27.047Z,0
2016-11-24T02:02:27.004Z,0
2016-11-24T02:03:26.972Z,0
2016-11-24T02:04:27.233Z,0
2016-11-24T02:05:27.189Z,0
2016-11-24T02:06:26.535Z,0
2016-11-24T02:07:26.799Z,0
2016-11-24T02:08:27.066Z,0
2016-11-24T02:09:26.743Z,0
2016-11-24T02:10:26.687Z,0
2016-11-24T02:11:26.629Z,0
2016-11-24T02:12:26.605Z,0
2016-11-24T02:13:26.561Z,0
2016-11-24T02:14:25.910Z,0
2016-11-24T02:15:26.474Z,0
2016-11-24T02:16:26.437Z,0
2016-11-24T02:17:26.095Z,0
2016-11-24T02:18:26.654Z,0
2016-11-24T02:19:26.009Z,0
2016-11-24T02:20:26.273Z,0
2016-11-24T02:21:26.225Z,0
2016-11-24T02:22:25.892Z,0
2016-11-24T02:23:26.155Z,0
2016-11-24T02:24:26.105Z,0
2016-11-24T02:25:26.071Z,0
2016-11-24T02:26:26.029Z,0
2016-11-24T02:27:26.292Z,0
2016-11-24T02:28:26.247Z,0
2016-11-24T02:29:25.902Z,0
2016-11-24T02:30:26.164Z,0
2016-11-24T02:31:25.826Z,0
2016-11-24T02:32:26.095Z,0
2016-11-24T02:33:25.743Z,0
2016-11-24T02:34:26.005Z,0
2016-11-24T02:35:25.664Z,0
2016-11-24T02:36:25.923Z,0
2016-11-24T02:37:24.974Z,0
2016-11-24T02:38:25.539Z,0
2016-11-24T02:39:25.498Z,0
2016-11-24T02:40:25.758Z,0
2016-11-24T02:41:25.117Z,0
2016-11-24T02:42:25.371Z,0
2016-11-24T02:43:25.337Z,0
2016-11-24T02:44:25.593Z,0
2016-11-24T02:45:24.957Z,0
2016-11-24T02:46:25.518Z,0
2016-11-24T02:47:25.478Z,0
2016-11-24T02:48:25.465Z,0
2016-11-24T02:49:25.390Z,0
2016-11-24T02:50:25.049Z,0
2016-11-24T02:51:25.012Z,0
2016-11-24T02:52:25.280Z,0
2016-11-24T02:53:24.942Z,0
2016-11-24T02:54:25.216Z,0
2016-11-24T02:55:25.148Z,0
2016-11-24T02:56:24.806Z,0
2016-11-24T02:57:24.772Z,0
2016-11-24T02:58:25.023Z,0
2016-11-24T02:59:24.987Z,0
2016-11-24T03:00:24.951Z,0
2016-11-24T03:01:24.613Z,0
2016-11-24T03:02:24.861Z,0
2016-11-24T03:03:24.519Z,0
2016-11-24T03:04:24.790Z,0
2016-11-24T03:05:24.448Z,0
2016-11-24T03:06:24.706Z,0
2016-11-24T03:07:24.659Z,0
2016-11-24T03:08:24.629Z,0
2016-11-24T03:09:24.584Z,0
2016-11-24T03:10:24.248Z,0
2016-11-24T03:11:24.196Z,0
2016-11-24T03:12:24.162Z,0
2016-11-24T03:13:23.820Z,0
2016-11-24T03:14:23.768Z,0
2016-11-24T03:15:24.031Z,0
2016-11-24T03:16:23.987Z,0
2016-11-24T03:17:24.254Z,0
2016-11-24T03:18:23.914Z,0
2016-11-24T03:19:23.894Z,0
2016-11-24T03:20:23.823Z,0
2016-11-24T03:21:23.480Z,0
2016-11-24T03:22:23.443Z,0
2016-11-24T03:23:23.409Z,0
2016-11-24T03:24:23.671Z,0
2016-11-24T03:25:23.933Z,0
2016-11-24T03:26:23.582Z,0
2016-11-24T03:27:23.844Z,0
2016-11-24T03:28:23.505Z,0
2016-11-24T03:29:23.461Z,0
2016-11-24T03:30:23.117Z,0
2016-11-24T03:31:23.684Z,0
2016-11-24T03:32:23.338Z,0
2016-11-24T03:33:23.602Z,0
2016-11-24T03:34:22.959Z,0
2016-11-24T03:35:23.519Z,0
2016-11-24T03:36:23.511Z,0
2016-11-24T03:37:23.134Z,0
2016-11-24T03:38:23.398Z,0
2016-11-24T03:39:23.351Z,0
2016-11-24T03:40:23.015Z,0
2016-11-24T03:41:22.967Z,0
2016-11-24T03:42:23.237Z,0
2016-11-24T03:43:23.191Z,0
2016-11-24T03:44:23.155Z,0
2016-11-24T03:45:23.116Z,0
2016-11-24T03:46:23.068Z,0
2016-11-24T03:47:23.026Z,0
2016-11-24T03:48:22.388Z,0
2016-11-24T03:49:22.047Z,0
2016-11-24T03:50:22.609Z,0
2016-11-24T03:51:22.262Z,0
2016-11-24T03:52:22.842Z,0
2016-11-24T03:53:22.787Z,0
2016-11-24T03:54:22.446Z,0
2016-11-24T03:55:22.100Z,0
2016-11-24T03:56:22.673Z,0
2016-11-24T03:57:21.727Z,0
2016-11-24T03:58:22.276Z,0
2016-11-24T03:59:22.236Z,0
2016-11-24T04:00:22.194Z,0
2016-11-24T04:01:22.454Z,0
2016-11-24T04:02:22.430Z,0
2016-11-24T04:03:21.776Z,0
2016-11-24T04:04:22.334Z,0
2016-11-24T04:05:21.998Z,0
2016-11-24T04:06:22.249Z,0
2016-11-24T04:07:22.212Z,0
2016-11-24T04:08:21.875Z,0
2016-11-24T04:09:21.527Z,0
2016-11-24T04:10:21.784Z,0
2016-11-24T04:11:22.049Z,0
2016-11-24T04:12:22.006Z,0
2016-11-24T04:13:21.970Z,0
2016-11-24T04:14:21.922Z,0
2016-11-24T04:15:21.584Z,0
2016-11-24T04:16:21.275Z,0
2016-11-24T04:17:21.507Z,0
2016-11-24T04:18:20.861Z,0
2016-11-24T04:19:21.715Z,0
2016-11-24T04:20:21.683Z,0
2016-11-24T04:21:21.040Z,0
2016-11-24T04:22:21.605Z,0
2016-11-24T04:23:20.953Z,0
2016-11-24T04:24:21.214Z,0
2016-11-24T04:25:20.878Z,0
2016-11-24T04:26:21.129Z,0
2016-11-24T04:27:21.096Z,0
2016-11-24T04:28:20.756Z,0
2016-11-24T04:29:21.009Z,0
2016-11-24T04:30:20.669Z,0
2016-11-24T04:31:20.925Z,0
2016-11-24T04:32:21.184Z,0
2016-11-24T04:33:20.550Z,0
2016-11-24T04:34:21.107Z,0
2016-11-24T04:35:21.083Z,0
2016-11-24T04:36:21.025Z,0
2016-11-24T04:37:20.689Z,0
2016-11-24T04:38:20.339Z,0
2016-11-24T04:39:20.907Z,0
2016-11-24T04:40:20.871Z,0
2016-11-24T04:41:20.821Z,0
2016-11-24T04:42:20.782Z,0
2016-11-24T04:43:20.744Z,0
2016-11-24T04:44:20.725Z,0
2016-11-24T04:45:20.357Z,0
2016-11-24T04:46:20.016Z,0
2016-11-24T04:47:19.987Z,0
2016-11-24T04:48:20.238Z,0
2016-11-24T04:49:20.521Z,0
2016-11-24T04:50:20.154Z,0
2016-11-24T04:51:19.808Z,0
2016-11-24T04:52:20.073Z,0
2016-11-24T04:53:20.031Z,0
2016-11-24T04:54:19.986Z,0
2016-11-24T04:55:19.945Z,0
2016-11-24T04:56:19.903Z,0
2016-11-24T04:57:19.866Z,0
2016-11-24T04:58:19.824Z,0
2016-11-24T04:59:19.784Z,0
2016-11-24T05:00:20.047Z,0
2016-11-24T05:01:20.000Z,0
2016-11-24T05:02:19.971Z,0
2016-11-24T05:03:19.625Z,0
2016-11-24T05:04:19.590Z,0
2016-11-24T05:05:19.836Z,0
2016-11-24T05:06:19.192Z,0
2016-11-24T05:07:19.461Z,0
2016-11-24T05:08:19.417Z,0
2016-11-24T05:09:19.376Z,0
2016-11-24T05:10:19.339Z,0
2016-11-24T05:11:19.597Z,0
2016-11-24T05:12:18.651Z,0
2016-11-24T05:13:19.513Z,0
2016-11-24T05:14:19.201Z,0
2016-11-24T05:15:19.135Z,0
2016-11-24T05:16:19.092Z,0
2016-11-24T05:17:19.349Z,0
2016-11-24T05:18:18.700Z,0
2016-11-24T05:19:18.968Z,0
2016-11-24T05:20:19.221Z,0
2016-11-24T05:21:19.188Z,0
2016-11-24T05:22:18.578Z,0
2016-11-24T05:23:18.801Z,0
2016-11-24T05:24:19.059Z,0
2016-11-24T05:25:18.737Z,0
2016-11-24T05:26:18.376Z,0
2016-11-24T05:27:18.935Z,0
2016-11-24T05:28:18.895Z,0
2016-11-24T05:29:18.569Z,0
2016-11-24T05:30:17.911Z,0
2016-11-24T05:31:18.781Z,0
2016-11-24T05:32:18.127Z,0
2016-11-24T05:33:18.707Z,0
2016-11-24T05:34:18.365Z,0
2016-11-24T05:35:18.306Z,0
2016-11-24T05:36:18.566Z,0
2016-11-24T05:37:18.528Z,0
2016-11-24T05:38:18.508Z,0
2016-11-24T05:39:18.458Z,0
2016-11-24T05:40:18.412Z,0
2016-11-24T05:41:18.376Z,0
2016-11-24T05:42:18.345Z,0
2016-11-24T05:43:17.986Z,0
2016-11-24T05:44:17.940Z,0
2016-11-24T05:45:18.211Z,0
2016-11-24T05:46:18.159Z,0
2016-11-24T05:47:18.136Z,0
2016-11-24T05:48:18.079Z,0
2016-11-24T05:49:18.033Z,0
2016-11-24T05:50:17.995Z,0
2016-11-24T05:51:17.048Z,0
2016-11-24T05:52:17.305Z,0
2016-11-24T05:53:17.269Z,0
2016-11-24T05:54:17.834Z,0
2016-11-24T05:55:17.823Z,0
2016-11-24T05:56:17.150Z,0
2016-11-24T05:57:17.124Z,0
2016-11-24T05:58:17.667Z,0
2016-11-24T05:59:17.328Z,0
2016-11-24T06:00:17.588Z,0
2016-11-24T06:01:16.947Z,0
2016-11-24T06:02:17.204Z,0
2016-11-24T06:03:17.475Z,0
2016-11-24T06:04:16.819Z,0
2016-11-24T06:05:16.783Z,0
2016-11-24T06:06:16.749Z,0
2016-11-24T06:07:17.004Z,0
2016-11-24T06:08:16.672Z,0
2016-11-24T06:09:17.219Z,0
2016-11-24T06:10:17.181Z,0
2016-11-24T06:11:16.870Z,0
2016-11-24T06:12:17.093Z,0
2016-11-24T06:13:17.072Z,0
2016-11-24T06:14:17.015Z,0
2016-11-24T06:15:16.976Z,0
2016-11-24T06:16:16.631Z,0
2016-11-24T06:17:16.288Z,0
2016-11-24T06:18:16.244Z,0
2016-11-24T06:19:16.215Z,0
2016-11-24T06:20:16.176Z,0
2016-11-24T06:21:16.429Z,0
2016-11-24T06:22:16.690Z,0
2016-11-24T06:23:16.653Z,0
2016-11-24T06:24:16.310Z,0
2016-11-24T06:25:16.566Z,0
2016-11-24T06:26:16.522Z,0
2016-11-24T06:27:16.186Z,0
2016-11-24T06:28:15.535Z,0
2016-11-24T06:29:16.127Z,0
2016-11-24T06:30:16.065Z,0
2016-11-24T06:31:15.723Z,0
2016-11-24T06:32:16.308Z,0
2016-11-24T06:33:16.239Z,0
2016-11-24T06:34:15.895Z,0
2016-11-24T06:35:16.157Z,0
2016-11-24T06:36:16.113Z,0
2016-11-24T06:37:15.194Z,0
2016-11-24T06:38:15.730Z,0
2016-11-24T06:39:16.002Z,0
2016-11-24T06:40:15.651Z,5
2016-11-24T06:41:15.615Z,5
2016-11-24T06:42:15.577Z,5
2016-11-24T06:43:15.233Z,5
2016-11-24T06:44:15.490Z,5
2016-11-24T06:45:15.451Z,5
2016-11-24T06:46:15.406Z,5
2016-11-24T06:47:15.668Z,5
2016-11-24T06:48:15.033Z,10
2016-11-24T06:49:14.982Z,10
2016-11-24T06:50:14.948Z,10
2016-11-24T06:51:15.510Z,10
2016-11-24T06:52:14.856Z,15
2016-11-24T06:53:15.423Z,15
2016-11-24T06:54:15.386Z,15
2016-11-24T06:55:15.339Z,15
2016-11-24T06:56:15.004Z,20
2016-11-24T06:57:15.264Z,20
2016-11-24T06:58:15.220Z,20
2016-11-24T06:59:14.576Z,25
2016-11-24T07:00:15.143Z,25
2016-11-24T07:01:15.096Z,25
2016-11-24T07:02:15.053Z,30
2016-11-24T07:03:14.410Z,30
2016-11-24T07:04:14.677Z,30
2016-11-24T07:05:14.632Z,35
2016-11-24T07:06:14.898Z,35
2016-11-24T07:07:14.254Z,35
2016-11-24T07:08:14.815Z,35
2016-11-24T07:09:14.486Z,40
2016-11-24T07:10:14.427Z,40
2016-11-24T07:11:14.389Z,45
2016-11-24T07:12:14.348Z,45
2016-11-24T07:13:14.310Z,55
2016-11-24T07:14:13.964Z,50
2016-11-24T07:15:14.228Z,55
2016-11-24T07:16:14.515Z,55
2016-11-24T07:17:14.447Z,60
2016-11-24T07:18:14.408Z,65
2016-11-24T07:19:13.768Z,65
2016-11-24T07:20:14.328Z,70
2016-11-24T07:21:13.681Z,75
2016-11-24T07:22:14.247Z,70
2016-11-24T07:23:13.906Z,70
2016-11-24T07:24:13.864Z,75
2016-11-24T07:25:14.131Z,80
2016-11-24T07:26:14.078Z,80
2016-11-24T07:27:13.751Z,85
2016-11-24T07:28:13.702Z,85
2016-11-24T07:29:13.972Z,90
2016-11-24T07:30:13.926Z,95
2016-11-24T07:31:13.585Z,95
2016-11-24T07:32:13.555Z,100
2016-11-24T07:33:13.505Z,100
2016-11-24T07:34:13.464Z,105
2016-11-24T07:35:13.121Z,110
2016-11-24T07:36:13.388Z,110
2016-11-24T07:37:13.045Z,110
2016-11-24T07:38:12.701Z,110
2016-11-24T07:39:13.586Z,115
2016-11-24T07:40:13.531Z,115
2016-11-24T07:41:13.203Z,120
2016-11-24T07:42:13.145Z,120
2016-11-24T07:43:13.413Z,125
2016-11-24T07:44:13.069Z,125
2016-11-24T07:45:13.324Z,130
2016-11-24T07:46:13.286Z,130
2016-11-24T07:47:12.947Z,130
2016-11-24T07:48:12.906Z,135
2016-11-24T07:49:12.869Z,135
2016-11-24T07:50:13.133Z,135
2016-11-24T07:51:12.792Z,140
2016-11-24T07:52:12.750Z,140
2016-11-24T07:53:13.017Z,145
2016-11-24T07:54:12.968Z,145
2016-11-24T07:55:12.935Z,145
2016-11-24T07:56:12.591Z,150
2016-11-24T07:57:12.548Z,150
2016-11-24T07:58:12.823Z,155
2016-11-24T07:59:12.528Z,155
2016-11-24T08:00:12.745Z,155
2016-11-24T08:01:12.092Z,155
2016-11-24T08:02:12.053Z,155
2016-11-24T08:03:12.617Z,160
2016-11-24T08:04:11.978Z,160
2016-11-24T08:05:12.572Z,160
2016-11-24T08:06:12.505Z,160
2016-11-24T08:07:12.162Z,165
2016-11-24T08:08:12.427Z,165
2016-11-24T08:09:12.388Z,165
2016-11-24T08:10:12.052Z,170
2016-11-24T08:11:12.316Z,170
2016-11-24T08:12:11.969Z,170
2016-11-24T08:13:11.628Z,170
2016-11-24T08:14:11.892Z,170
2016-11-24T08:15:11.852Z,165
2016-11-24T08:16:12.126Z,165
2016-11-24T08:17:11.474Z,165
2016-11-24T08:18:11.779Z,165
2016-11-24T08:19:11.997Z,165
2016-11-24T08:20:11.682Z,165
2016-11-24T08:21:11.323Z,165
2016-11-24T08:22:11.592Z,165
2016-11-24T08:23:11.864Z,165
2016-11-24T08:24:11.198Z,165
2016-11-24T08:25:11.475Z,165
2016-11-24T08:26:11.428Z,165
2016-11-24T08:27:11.094Z,165
2016-11-24T08:28:10.745Z,165
2016-11-24T08:29:11.617Z,165
2016-11-24T08:30:11.580Z,165
2016-11-24T08:31:11.242Z,165
2016-11-24T08:32:11.201Z,165
2016-11-24T08:33:10.865Z,165
2016-11-24T08:34:11.122Z,165
2016-11-24T08:35:11.388Z,165
2016-11-24T08:36:11.051Z,165
2016-11-24T08:37:11.007Z,165
2016-11-24T08:38:10.968Z,165
2016-11-24T08:39:10.934Z,165
2016-11-24T08:40:10.891Z,165
2016-11-24T08:41:11.157Z,165
2016-11-24T08:42:10.816Z,165
2016-11-24T08:43:10.512Z,165
2016-11-24T08:44:11.047Z,165
2016-11-24T08:45:11.002Z,170
2016-11-24T08:46:10.366Z,170
2016-11-24T08:47:10.943Z,170
2016-11-24T08:48:10.589Z,170
2016-11-24T08:49:10.548Z,170
2016-11-24T08:50:10.219Z,170
2016-11-24T08:51:10.776Z,170
2016-11-24T08:52:10.748Z,170
2016-11-24T08:53:10.729Z,175
2016-11-24T08:54:10.368Z,175
2016-11-24T08:55:10.330Z,180
2016-11-24T08:56:09.985Z,175
2016-11-24T08:57:10.549Z,175
2016-11-24T08:58:10.240Z,175
2016-11-24T08:59:09.876Z,175
2016-11-24T09:00:10.140Z,175
2016-11-24T09:01:10.406Z,175
2016-11-24T09:02:10.059Z,175
2016-11-24T09:03:10.319Z,175
2016-11-24T09:04:09.381Z,175
2016-11-24T09:05:09.949Z,175
2016-11-24T09:06:10.212Z,175
2016-11-24T09:07:10.199Z,175
2016-11-24T09:08:09.833Z,180
2016-11-24T09:09:10.096Z,180
2016-11-24T09:10:09.765Z,180
2016-11-24T09:11:09.418Z,180
2016-11-24T09:12:09.680Z,180
2016-11-24T09:13:09.642Z,180
2016-11-24T09:14:09.911Z,185
2016-11-24T09:15:09.873Z,185
2016-11-24T09:16:09.837Z,185
2016-11-24T09:17:09.528Z,185
2016-11-24T09:18:09.152Z,185
2016-11-24T09:19:09.117Z,185
2016-11-24T09:20:09.077Z,190
2016-11-24T09:21:09.654Z,190
2016-11-24T09:22:09.634Z,190
2016-11-24T09:23:09.268Z,195
2016-11-24T09:24:09.529Z,195
2016-11-24T09:25:08.596Z,200
2016-11-24T09:26:09.484Z,200
2016-11-24T09:27:09.418Z,200
2016-11-24T09:28:09.380Z,205
2016-11-24T09:29:08.746Z,205
2016-11-24T09:30:09.009Z,205
2016-11-24T09:31:08.669Z,205
2016-11-24T09:32:08.942Z,205
2016-11-24T09:33:08.910Z,205
2016-11-24T09:34:09.165Z,205
2016-11-24T09:35:08.815Z,205
2016-11-24T09:36:08.781Z,205
2016-11-24T09:37:08.743Z,205
2016-11-24T09:38:09.013Z,205
2016-11-24T09:39:08.698Z,205
2016-11-24T09:40:08.935Z,210
2016-11-24T09:41:08.621Z,215
2016-11-24T09:42:08.861Z,220
2016-11-24T09:43:08.523Z,225
2016-11-24T09:44:07.881Z,230
2016-11-24T09:45:08.493Z,245
2016-11-24T09:46:08.405Z,245
2016-11-24T09:47:08.675Z,250
2016-11-24T09:48:08.034Z,250
2016-11-24T09:49:08.602Z,260
2016-11-24T09:50:08.270Z,260
2016-11-24T09:51:08.525Z,260
2016-11-24T09:52:08.488Z,260
2016-11-24T09:53:08.155Z,270
2016-11-24T09:54:08.115Z,275
2016-11-24T09:55:08.076Z,290
2016-11-24T09:56:08.044Z,275
2016-11-24T09:57:08.011Z,280
2016-11-24T09:58:08.275Z,270
2016-11-24T09:59:07.366Z,270
2016-11-24T10:00:08.202Z,270
2016-11-24T10:01:07.864Z,265
2016-11-24T10:02:07.830Z,260
2016-11-24T10:03:08.093Z,255
2016-11-24T10:04:07.753Z,250
2016-11-24T10:05:07.726Z,250
2016-11-24T10:06:07.688Z,250
2016-11-24T10:07:07.649Z,250
2016-11-24T10:08:07.304Z,250
2016-11-24T10:09:07.282Z,255
2016-11-24T10:10:07.539Z,265
2016-11-24T10:11:07.802Z,270
2016-11-24T10:12:07.465Z,270
2016-11-24T10:13:07.728Z,270
2016-11-24T10:14:06.787Z,270
2016-11-24T10:15:07.055Z,275
2016-11-24T10:16:07.635Z,275
2016-11-24T10:17:07.293Z,275
2016-11-24T10:18:06.948Z,270
2016-11-24T10:19:06.912Z,265
2016-11-24T10:20:07.477Z,265
2016-11-24T10:21:07.457Z,260
2016-11-24T10:22:06.805Z,260
2016-11-24T10:23:07.070Z,260
2016-11-24T10:24:07.340Z,260
2016-11-24T10:25:06.703Z,265
2016-11-24T10:26:06.965Z,265
2016-11-24T10:27:06.926Z,265
2016-11-24T10:28:07.205Z,270
2016-11-24T10:29:07.165Z,270
2016-11-24T10:30:06.831Z,275
2016-11-24T10:31:06.795Z,275
2016-11-24T10:32:06.773Z,275
2016-11-24T10:33:06.722Z,285
2016-11-24T10:34:06.680Z,290
2016-11-24T10:35:06.952Z,285
2016-11-24T10:36:06.796Z,285
2016-11-24T10:37:06.706Z,285
2016-11-24T10:38:06.854Z,285
2016-11-24T10:39:06.510Z,280
2016-11-24T10:40:06.477Z,280
2016-11-24T10:41:06.440Z,280
2016-11-24T10:42:06.706Z,275
2016-11-24T10:43:06.074Z,275
2016-11-24T10:44:06.637Z,270
2016-11-24T10:45:06.595Z,270
2016-11-24T10:46:06.262Z,265
2016-11-24T10:47:06.232Z,260
2016-11-24T10:48:05.894Z,260
2016-11-24T10:49:06.172Z,260
2016-11-24T10:50:05.519Z,255
2016-11-24T10:51:06.117Z,250
2016-11-24T10:52:05.754Z,245
2016-11-24T10:53:05.727Z,240
2016-11-24T10:54:05.988Z,240
2016-11-24T10:55:06.255Z,235
2016-11-24T10:56:05.915Z,235
2016-11-24T10:57:05.880Z,235
2016-11-24T10:58:05.845Z,230
2016-11-24T10:59:06.111Z,230
2016-11-24T11:00:05.776Z,225
2016-11-24T11:01:06.059Z,225
2016-11-24T11:02:05.715Z,225
2016-11-24T11:03:05.667Z,220
2016-11-24T11:04:05.636Z,220
2016-11-24T11:05:05.907Z,215
2016-11-24T11:06:05.563Z,215
2016-11-24T11:07:05.832Z,210
2016-11-24T11:08:05.497Z,210
2016-11-24T11:09:05.463Z,205
2016-11-24T11:10:05.724Z,205
2016-11-24T11:11:05.397Z,205
2016-11-24T11:12:05.053Z,205
2016-11-24T11:13:05.021Z,200
2016-11-24T11:14:05.313Z,200
2016-11-24T11:15:05.559Z,200
2016-11-24T11:16:04.943Z,200
2016-11-24T11:17:05.484Z,200
2016-11-24T11:18:04.556Z,200
2016-11-24T11:19:05.106Z,200
2016-11-24T11:20:05.377Z,200
2016-11-24T11:21:05.041Z,200
2016-11-24T11:22:05.004Z,200
2016-11-24T11:23:04.967Z,200
2016-11-24T11:24:04.938Z,200
2016-11-24T11:25:05.198Z,195
2016-11-24T11:26:05.171Z,195
2016-11-24T11:27:04.833Z,195
2016-11-24T11:28:05.098Z,195
2016-11-24T11:29:04.759Z,195
2016-11-24T11:30:05.040Z,195
2016-11-24T11:31:03.782Z,195
2016-11-24T11:32:04.962Z,195
2016-11-24T11:33:04.618Z,195
2016-11-24T11:34:04.283Z,195
2016-11-24T11:35:04.547Z,190
2016-11-24T11:36:04.823Z,190
2016-11-24T11:37:04.486Z,190
2016-11-24T11:38:04.449Z,195
2016-11-24T11:39:03.805Z,195
2016-11-24T11:40:04.376Z,195
2016-11-24T11:41:04.643Z,195
2016-11-24T11:42:04.608Z,195
2016-11-24T11:43:04.273Z,195
2016-11-24T11:44:04.235Z,200
2016-11-24T11:45:03.895Z,200
2016-11-24T11:46:04.461Z,200
2016-11-24T11:47:04.123Z,200
2016-11-24T11:48:04.007Z,205
2016-11-24T11:49:03.760Z,205
2016-11-24T11:50:04.319Z,205
2016-11-24T11:51:03.381Z,205
2016-11-24T11:52:04.251Z,205
2016-11-24T11:53:04.216Z,200
2016-11-24T11:54:04.179Z,200
2016-11-24T11:55:03.570Z,200
2016-11-24T11:56:03.821Z,200
2016-11-24T11:57:04.082Z,195
2016-11-24T11:58:04.044Z,195
2016-11-24T11:59:04.010Z,190
2016-11-24T12:00:03.994Z,190
2016-11-24T12:01:03.938Z,185
2016-11-24T12:02:03.298Z,185
2016-11-24T12:03:02.970Z,185
2016-11-24T12:04:03.535Z,185
2016-11-24T12:05:03.499Z,180
2016-11-24T12:06:03.459Z,180
2016-11-24T12:07:03.122Z,180
2016-11-24T12:08:03.695Z,175
2016-11-24T12:09:03.356Z,175
2016-11-24T12:10:03.321Z,175
2016-11-24T12:11:03.592Z,175
2016-11-24T12:12:03.247Z,170
2016-11-24T12:13:02.906Z,170
2016-11-24T12:14:02.878Z,170
2016-11-24T12:15:02.839Z,165
2016-11-24T12:16:02.808Z,165
2016-11-24T12:17:03.371Z,160
2016-11-24T12:18:03.038Z,160
2016-11-24T12:19:02.996Z,160
2016-11-24T12:20:02.663Z,155
2016-11-24T12:21:03.232Z,155
2016-11-24T12:22:02.923Z,155
2016-11-24T12:23:02.871Z,160
2016-11-24T12:24:03.124Z,155
2016-11-24T12:25:02.196Z,150
2016-11-24T12:26:03.055Z,150
2016-11-24T12:27:03.019Z,150
2016-11-24T12:28:02.992Z,150
2016-11-24T12:29:02.649Z,150
2016-11-24T12:30:02.306Z,150
2016-11-24T12:31:02.586Z,150
2016-11-24T12:32:02.540Z,150
2016-11-24T12:33:02.805Z,150
2016-11-24T12:34:02.768Z,150
2016-11-24T12:35:02.439Z,150
2016-11-24T12:36:02.410Z,155
2016-11-24T12:37:02.362Z,155
2016-11-24T12:38:02.328Z,155
2016-11-24T12:39:02.299Z,155
2016-11-24T12:40:02.258Z,150
2016-11-24T12:41:02.234Z,150
2016-11-24T12:42:02.180Z,145
2016-11-24T12:43:02.152Z,145
2016-11-24T12:44:02.120Z,140
2016-11-24T12:45:02.384Z,140
2016-11-24T12:46:02.343Z,140
2016-11-24T12:47:02.310Z,140
2016-11-24T12:48:01.974Z,135
2016-11-24T12:49:01.638Z,130
2016-11-24T12:50:01.598Z,130
2016-11-24T12:51:02.170Z,130
2016-11-24T12:52:01.828Z,125
2016-11-24T12:53:01.797Z,125
2016-11-24T12:54:01.755Z,125
2016-11-24T12:55:02.026Z,125
2016-11-24T12:56:01.989Z,120
2016-11-24T12:57:01.645Z,120
2016-11-24T12:58:01.917Z,120
2016-11-24T12:59:01.882Z,120
2016-11-24T13:00:01.841Z,125
2016-11-24T13:01:01.517Z,115
2016-11-24T13:02:01.466Z,115
2016-11-24T13:03:01.735Z,115
2016-11-24T13:04:01.104Z,115
2016-11-24T13:05:01.364Z,115
2016-11-24T13:06:01.329Z,115
2016-11-24T13:07:01.588Z,115
2016-11-24T13:08:01.556Z,115
2016-11-24T13:09:01.214Z,115
2016-11-24T13:10:01.180Z,115
2016-11-24T13:11:01.458Z,120
2016-11-24T13:12:01.119Z,120
2016-11-24T13:13:01.081Z,120
2016-11-24T13:14:01.345Z,125
2016-11-24T13:15:01.298Z,130
2016-11-24T13:16:00.972Z,130
2016-11-24T13:17:00.930Z,130
2016-11-24T13:18:01.226Z,130
2016-11-24T13:19:01.169Z,130
2016-11-24T13:20:01.127Z,135
2016-11-24T13:21:01.094Z,135
2016-11-24T13:22:00.748Z,135
2016-11-24T13:23:00.716Z,135
2016-11-24T13:24:00.378Z,135
2016-11-24T13:25:00.643Z,140
2016-11-24T13:26:00.606Z,140
2016-11-24T13:27:00.873Z,140
2016-11-24T13:28:00.859Z,145
2016-11-24T13:29:00.500Z,145
2016-11-24T13:30:00.457Z,145
2016-11-24T13:31:00.735Z,145
2016-11-24T13:32:00.689Z,145
2016-11-24T13:33:00.657Z,145
2016-11-24T13:34:00.012Z,145
2016-11-24T13:35:00.280Z,145
2016-11-24T13:35:59.941Z,145
2016-11-24T13:37:00.227Z,145
2016-11-24T13:38:00.192Z,140
2016-11-24T13:39:00.448Z,140
2016-11-24T13:40:00.110Z,140
2016-11-24T13:41:00.367Z,140
2016-11-24T13:42:00.059Z,140
2016-11-24T13:42:59.698Z,135
2016-11-24T13:44:00.258Z,135
2016-11-24T13:44:59.919Z,135
2016-11-24T13:45:59.885Z,130
2016-11-24T13:46:59.853Z,125
2016-11-24T13:48:00.120Z,125
2016-11-24T13:49:00.079Z,120
2016-11-24T13:49:59.435Z,120
2016-11-24T13:50:59.705Z,115
2016-11-24T13:52:00.005Z,115
2016-11-24T13:52:59.634Z,110
2016-11-24T13:53:59.935Z,110
2016-11-24T13:54:59.870Z,105
2016-11-24T13:55:59.826Z,105
2016-11-24T13:56:59.788Z,100
2016-11-24T13:57:59.753Z,100
2016-11-24T13:58:59.412Z,95
2016-11-24T13:59:59.677Z,95
2016-11-24T14:00:59.039Z,95
2016-11-24T14:01:59.004Z,95
2016-11-24T14:02:59.276Z,90
2016-11-24T14:03:58.931Z,90
2016-11-24T14:04:59.204Z,85
2016-11-24T14:05:58.865Z,85
2016-11-24T14:06:59.124Z,85
2016-11-24T14:07:58.819Z,80
2016-11-24T14:08:59.049Z,80
2016-11-24T14:09:58.713Z,80
2016-11-24T14:10:58.987Z,80
2016-11-24T14:11:58.342Z,75
2016-11-24T14:12:58.900Z,75
2016-11-24T14:13:58.572Z,80
2016-11-24T14:14:58.835Z,75
2016-11-24T14:15:58.797Z,75